createdAt,value
2022-10-15T00:01:24.013Z,76.79
2022-10-15T00:03:51.252Z,76.93
2022-10-15T00:06:21.111Z,76.75
2022-10-15T00:08:48.510Z,76.55
2022-10-15T00:11:21.901Z,76.39
2022-10-15T00:13:50.490Z,78.13
2022-10-15T00:16:20.210Z,77.23
2022-10-15T00:18:48.232Z,77.27
2022-10-15T00:21:17.793Z,77.61
2022-10-15T00:23:46.010Z,77.28
2022-10-15T00:26:24.441Z,77.21
2022-10-15T00:28:53.071Z,77.00
2022-10-15T00:31:26.525Z,77.33
2022-10-15T00:33:55.224Z,77.09
2022-10-15T00:36:26.412Z,77.44
2022-10-15T00:38:53.584Z,77.30
2022-10-15T00:41:23.312Z,77.39
2022-10-15T00:43:53.762Z,77.17
2022-10-15T00:46:35.883Z,76.04
2022-10-15T00:49:18.112Z,76.89
2022-10-15T00:52:07.841Z,76.04
2022-10-15T00:54:59.935Z,76.31
2022-10-15T00:57:27.615Z,75.98
2022-10-15T01:00:00.775Z,76.49
2022-10-15T01:02:27.827Z,75.44
2022-10-15T01:04:55.918Z,75.66
2022-10-15T01:07:22.926Z,76.05
2022-10-15T01:09:50.705Z,75.52
2022-10-15T01:12:42.178Z,75.68
2022-10-15T01:15:14.309Z,75.47
2022-10-15T01:17:55.903Z,75.38
2022-10-15T01:20:49.755Z,76.04
2022-10-15T01:24:06.037Z,75.25
2022-10-15T01:26:36.141Z,75.76
2022-10-15T01:29:27.711Z,74.87
2022-10-15T01:32:14.275Z,75.53
2022-10-15T01:35:07.417Z,74.30
2022-10-15T01:37:50.294Z,75.00
2022-10-15T01:40:23.444Z,75.17
2022-10-15T01:43:12.574Z,75.43
2022-10-15T01:45:57.160Z,74.76
2022-10-15T01:48:48.787Z,74.79
2022-10-15T01:51:18.703Z,74.90
2022-10-15T01:53:47.358Z,74.90
2022-10-15T01:56:20.254Z,75.35
2022-10-15T01:58:50.642Z,75.07
2022-10-15T02:01:17.926Z,74.93
2022-10-15T02:03:52.609Z,75.24
2022-10-15T02:06:37.209Z,75.17
2022-10-15T02:09:29.084Z,75.68
2022-10-15T02:12:24.371Z,75.14
2022-10-15T02:15:12.116Z,74.77
2022-10-15T02:17:51.231Z,74.67
2022-10-15T02:20:25.283Z,75.43
2022-10-15T02:23:03.960Z,75.46
2022-10-15T02:25:33.833Z,75.06
2022-10-15T02:28:04.043Z,75.06
2022-10-15T02:30:32.359Z,75.66
2022-10-15T02:33:00.456Z,75.02
2022-10-15T02:35:28.407Z,74.93
2022-10-15T02:37:58.580Z,75.65
2022-10-15T02:40:29.626Z,75.13
2022-10-15T02:42:57.200Z,75.48
2022-10-15T02:45:24.166Z,74.88
2022-10-15T02:47:51.212Z,75.41
2022-10-15T02:50:18.999Z,74.62
2022-10-15T02:52:45.874Z,75.13
2022-10-15T02:55:12.812Z,74.64
2022-10-15T02:57:39.732Z,75.03
2022-10-15T03:00:08.694Z,74.74
2022-10-15T03:02:35.966Z,74.89
2022-10-15T03:05:03.314Z,74.86
2022-10-15T03:07:30.383Z,75.27
2022-10-15T03:09:57.345Z,75.31
2022-10-15T03:12:26.122Z,75.13
2022-10-15T03:14:54.255Z,75.51
2022-10-15T03:17:22.235Z,75.07
2022-10-15T03:19:49.658Z,75.00
2022-10-15T03:22:17.035Z,74.67
2022-10-15T03:24:50.786Z,75.00
2022-10-15T03:27:23.610Z,75.54
2022-10-15T03:29:50.916Z,75.68
2022-10-15T03:32:17.767Z,75.01
2022-10-15T03:34:44.983Z,75.52
2022-10-15T03:37:14.251Z,75.64
2022-10-15T03:39:42.186Z,75.17
2022-10-15T03:42:10.098Z,75.56
2022-10-15T03:44:45.363Z,75.07
2022-10-15T03:47:16.107Z,75.35
2022-10-15T03:49:47.827Z,75.22
2022-10-15T03:52:16.048Z,75.08
2022-10-15T03:54:43.895Z,74.87
2022-10-15T03:57:14.462Z,74.95
2022-10-15T03:59:59.978Z,74.98
2022-10-15T04:02:31.773Z,74.93
2022-10-15T04:04:59.106Z,74.44
2022-10-15T04:07:26.715Z,75.19
2022-10-15T04:09:53.642Z,74.66
2022-10-15T04:12:25.400Z,74.88
2022-10-15T04:14:52.660Z,74.18
2022-10-15T04:17:19.714Z,73.70
2022-10-15T04:19:46.851Z,73.90
2022-10-15T04:22:15.278Z,73.83
2022-10-15T04:24:47.637Z,73.69
2022-10-15T04:27:25.251Z,74.18
2022-10-15T04:29:52.303Z,73.08
2022-10-15T04:32:19.716Z,73.67
2022-10-15T04:34:48.184Z,72.96
2022-10-15T04:37:16.775Z,73.55
2022-10-15T04:39:43.763Z,73.05
2022-10-15T04:42:13.485Z,72.93
2022-10-15T04:44:40.743Z,72.46
2022-10-15T04:47:07.689Z,72.94
2022-10-15T04:49:42.801Z,72.28
2022-10-15T04:52:26.774Z,71.66
2022-10-15T04:55:04.901Z,72.01
2022-10-15T04:57:32.023Z,71.81
2022-10-15T04:59:59.151Z,71.84
2022-10-15T05:02:33.279Z,71.52
2022-10-15T05:05:23.553Z,70.94
2022-10-15T05:08:01.129Z,71.02
2022-10-15T05:10:29.376Z,70.63
2022-10-15T05:12:58.105Z,70.59
2022-10-15T05:15:31.096Z,71.21
2022-10-15T05:17:58.103Z,70.77
2022-10-15T05:20:32.586Z,70.78
2022-10-15T05:22:59.573Z,71.08
2022-10-15T05:25:31.472Z,71.11
2022-10-15T05:27:58.992Z,70.47
2022-10-15T05:30:25.965Z,70.52
2022-10-15T05:32:55.033Z,70.47
2022-10-15T05:35:23.482Z,71.08
2022-10-15T05:37:58.633Z,70.74
2022-10-15T05:40:25.704Z,70.04
2022-10-15T05:43:07.332Z,70.18
2022-10-15T05:45:34.312Z,69.44
2022-10-15T05:48:06.434Z,69.26
2022-10-15T05:50:34.616Z,68.61
2022-10-15T05:53:03.792Z,69.26
2022-10-15T05:55:44.433Z,69.55
2022-10-15T05:58:11.589Z,69.19
2022-10-15T06:00:39.756Z,69.40
2022-10-15T06:03:06.701Z,68.71
2022-10-15T06:05:33.830Z,69.54
2022-10-15T06:08:00.813Z,68.93
2022-10-15T06:10:28.656Z,69.76
2022-10-15T06:12:55.638Z,69.57
2022-10-15T06:15:22.700Z,69.59
2022-10-15T06:17:53.942Z,68.18
2022-10-15T06:20:21.029Z,68.40
2022-10-15T06:22:47.946Z,68.88
2022-10-15T06:25:15.007Z,67.96
2022-10-15T06:27:41.918Z,67.29
2022-10-15T06:30:09.423Z,68.01
2022-10-15T06:32:36.704Z,67.13
2022-10-15T06:35:03.798Z,67.20
2022-10-15T06:37:33.587Z,65.24
2022-10-15T06:40:00.922Z,65.97
2022-10-15T06:42:27.820Z,66.31
2022-10-15T06:44:55.781Z,65.43
2022-10-15T06:47:23.059Z,65.98
2022-10-15T06:49:50.286Z,64.92
2022-10-15T06:52:17.255Z,64.58
2022-10-15T06:54:44.219Z,64.35
2022-10-15T06:57:11.201Z,64.55
2022-10-15T06:59:41.206Z,64.34
2022-10-15T07:02:11.824Z,64.35
2022-10-15T07:04:38.743Z,63.47
2022-10-15T07:07:06.054Z,63.97
2022-10-15T07:09:34.432Z,64.21
2022-10-15T07:12:01.415Z,63.87
2022-10-15T07:14:29.552Z,63.68
2022-10-15T07:16:56.465Z,63.58
2022-10-15T07:19:23.428Z,63.34
2022-10-15T07:21:50.805Z,63.84
2022-10-15T07:24:18.223Z,63.59
2022-10-15T07:26:47.589Z,63.26
2022-10-15T07:29:14.543Z,63.42
2022-10-15T07:31:41.579Z,63.35
2022-10-15T07:34:08.485Z,62.69
2022-10-15T07:36:35.380Z,63.51
2022-10-15T07:39:02.512Z,63.31
2022-10-15T07:41:31.022Z,63.04
2022-10-15T07:43:57.961Z,62.92
2022-10-15T07:46:24.946Z,63.53
2022-10-15T07:48:55.943Z,63.41
2022-10-15T07:51:22.887Z,62.67
2022-10-15T07:53:49.866Z,63.07
2022-10-15T07:56:16.978Z,62.78
2022-10-15T07:58:51.431Z,62.43
2022-10-15T08:01:20.277Z,61.77
2022-10-15T08:03:48.005Z,61.45
2022-10-15T08:06:15.292Z,62.00
2022-10-15T08:08:42.198Z,62.39
2022-10-15T08:11:11.778Z,60.93
2022-10-15T08:13:41.427Z,60.83
2022-10-15T08:16:09.819Z,60.72
2022-10-15T08:18:37.770Z,60.55
2022-10-15T08:21:06.839Z,59.46
2022-10-15T08:23:34.922Z,60.18
2022-10-15T08:26:02.300Z,59.34
2022-10-15T08:28:30.135Z,59.67
2022-10-15T08:31:04.574Z,59.73
2022-10-15T08:33:34.574Z,59.77
2022-10-15T08:36:01.536Z,59.25
2022-10-15T08:38:31.025Z,60.05
2022-10-15T08:41:00.333Z,58.79
2022-10-15T08:43:38.139Z,58.86
2022-10-15T08:46:11.985Z,57.69
2022-10-15T08:48:51.158Z,57.66
2022-10-15T08:51:21.814Z,57.46
2022-10-15T08:54:03.905Z,57.54
2022-10-15T08:56:34.929Z,57.43
2022-10-15T08:59:31.835Z,56.09
2022-10-15T09:02:04.064Z,56.75
2022-10-15T09:04:34.858Z,57.62
2022-10-15T09:07:13.236Z,56.41
2022-10-15T09:09:49.612Z,55.32
2022-10-15T09:12:46.202Z,54.70
2022-10-15T09:15:17.388Z,55.05
2022-10-15T09:17:47.858Z,55.06
2022-10-15T09:20:26.848Z,55.09
2022-10-15T09:22:54.362Z,55.71
2022-10-15T09:25:26.429Z,54.97
2022-10-15T09:28:09.499Z,55.70
2022-10-15T09:30:51.184Z,55.48
2022-10-15T09:33:27.279Z,55.26
2022-10-15T09:36:04.851Z,55.09
2022-10-15T09:38:46.969Z,54.54
2022-10-15T09:41:47.374Z,55.13
2022-10-15T09:44:17.400Z,55.44
2022-10-15T09:46:50.735Z,56.13
2022-10-15T09:49:23.998Z,56.55
2022-10-15T09:52:04.708Z,56.16
2022-10-15T09:54:40.625Z,56.03
2022-10-15T09:57:10.432Z,56.34
2022-10-15T09:59:37.445Z,55.51
2022-10-15T10:02:19.732Z,55.61
2022-10-15T10:04:46.783Z,56.02
2022-10-15T10:07:32.458Z,56.59
2022-10-15T10:10:27.107Z,55.94
2022-10-15T10:12:56.186Z,56.06
2022-10-15T10:15:34.545Z,55.83
2022-10-15T10:18:02.430Z,55.71
2022-10-15T10:20:32.040Z,55.48
2022-10-15T10:23:01.953Z,55.60
2022-10-15T10:25:46.893Z,55.44
2022-10-15T10:28:25.486Z,55.91
2022-10-15T10:30:58.547Z,55.92
2022-10-15T10:33:42.483Z,56.08
2022-10-15T10:36:30.880Z,56.03
2022-10-15T10:39:15.732Z,55.79
2022-10-15T10:41:57.580Z,56.33
2022-10-15T10:44:34.214Z,55.68
2022-10-15T10:47:08.094Z,55.15
2022-10-15T10:49:41.027Z,54.75
2022-10-15T10:52:32.313Z,54.57
2022-10-15T10:55:05.235Z,54.40
2022-10-15T10:57:43.308Z,53.54
2022-10-15T11:00:33.780Z,53.79
2022-10-15T11:03:01.225Z,54.83
2022-10-15T11:05:34.161Z,53.46
2022-10-15T11:08:08.569Z,54.04
2022-10-15T11:10:46.380Z,53.55
2022-10-15T11:13:39.220Z,53.72
2022-10-15T11:16:10.023Z,54.28
2022-10-15T11:18:51.255Z,53.60
2022-10-15T11:21:53.865Z,54.08
2022-10-15T11:24:49.129Z,54.14
2022-10-15T11:27:48.493Z,54.22
2022-10-15T11:30:39.933Z,54.49
2022-10-15T11:33:08.443Z,54.71
2022-10-15T11:35:53.422Z,55.18
2022-10-15T11:38:44.115Z,54.76
2022-10-15T11:42:02.033Z,54.46
2022-10-15T11:44:55.442Z,54.52
2022-10-15T11:47:46.979Z,54.06
2022-10-15T11:50:41.013Z,53.96
2022-10-15T11:53:26.316Z,54.35
2022-10-15T11:56:34.982Z,53.96
2022-10-15T11:59:37.856Z,53.94
2022-10-15T12:02:18.038Z,53.16
2022-10-15T12:04:48.654Z,53.39
2022-10-15T12:07:41.417Z,53.62
2022-10-15T12:10:13.139Z,52.81
2022-10-15T12:13:06.409Z,53.02
2022-10-15T12:15:45.127Z,53.30
2022-10-15T12:18:18.390Z,52.24
2022-10-15T12:20:46.436Z,53.23
2022-10-15T12:23:39.181Z,52.37
2022-10-15T12:26:26.170Z,52.52
2022-10-15T12:28:58.397Z,53.85
2022-10-15T12:31:48.438Z,53.79
2022-10-15T12:34:41.267Z,54.08
2022-10-15T12:37:17.863Z,54.80
2022-10-15T12:39:52.486Z,55.03
2022-10-15T12:42:40.151Z,55.13
2022-10-15T12:45:21.003Z,55.38
2022-10-15T12:47:55.105Z,55.46
2022-10-15T12:50:23.474Z,55.94
2022-10-15T12:53:15.347Z,55.78
2022-10-15T12:55:42.276Z,55.95
2022-10-15T12:58:42.408Z,56.69
2022-10-15T13:01:15.559Z,57.01
2022-10-15T13:04:01.448Z,57.54
2022-10-15T13:06:43.970Z,55.92
2022-10-15T13:09:30.595Z,56.27
2022-10-15T13:12:00.253Z,56.90
2022-10-15T13:14:49.748Z,56.32
2022-10-15T13:17:19.591Z,56.54
2022-10-15T13:19:53.259Z,55.95
2022-10-15T13:22:23.881Z,55.96
2022-10-15T13:24:51.449Z,56.14
2022-10-15T13:27:33.176Z,56.29
2022-10-15T13:30:05.466Z,55.97
2022-10-15T13:32:52.268Z,56.45
2022-10-15T13:35:22.133Z,56.18
2022-10-15T13:37:49.533Z,57.10
2022-10-15T13:40:24.095Z,57.80
2022-10-15T13:43:02.796Z,56.98
2022-10-15T13:45:30.539Z,57.73
2022-10-15T13:47:57.618Z,57.75
2022-10-15T13:50:36.324Z,58.26
2022-10-15T13:53:42.418Z,57.88
2022-10-15T13:56:25.253Z,58.94
2022-10-15T13:58:53.943Z,58.57
2022-10-15T14:01:23.260Z,58.71
2022-10-15T14:03:51.475Z,59.62
2022-10-15T14:06:33.709Z,59.85
2022-10-15T14:09:27.093Z,60.02
2022-10-15T14:11:57.944Z,60.54
2022-10-15T14:14:46.970Z,60.48
2022-10-15T14:17:23.337Z,60.78
2022-10-15T14:20:25.858Z,61.27
2022-10-15T14:22:49.687Z,61.50
2022-10-15T14:25:25.597Z,61.82
2022-10-15T14:27:53.054Z,62.66
2022-10-15T14:30:33.179Z,63.98
2022-10-15T14:33:00.312Z,63.62
2022-10-15T14:35:36.632Z,64.22
2022-10-15T14:38:26.079Z,64.65
2022-10-15T14:41:07.933Z,64.88
2022-10-15T14:43:38.467Z,66.07
2022-10-15T14:46:11.666Z,65.55
2022-10-15T14:48:40.787Z,65.41
2022-10-15T14:51:15.589Z,65.77
2022-10-15T14:53:46.930Z,66.00
2022-10-15T14:56:34.180Z,66.70
2022-10-15T14:59:02.217Z,66.68
2022-10-15T15:01:31.855Z,65.88
2022-10-15T15:03:58.850Z,66.28
2022-10-15T15:06:25.828Z,67.72
2022-10-15T15:08:52.963Z,67.43
2022-10-15T15:11:24.294Z,68.48
2022-10-15T15:13:52.360Z,68.65
2022-10-15T15:16:19.670Z,67.59
2022-10-15T15:18:49.074Z,68.02
2022-10-15T15:21:21.520Z,68.11
2022-10-15T15:23:49.030Z,67.68
2022-10-15T15:26:15.973Z,68.59
2022-10-15T15:28:42.941Z,70.41
2022-10-15T15:31:17.170Z,70.34
2022-10-15T15:33:44.348Z,70.08
2022-10-15T15:36:19.100Z,71.51
2022-10-15T15:38:50.808Z,70.37
2022-10-15T15:41:19.696Z,70.60
2022-10-15T15:43:47.272Z,70.50
2022-10-15T15:46:14.735Z,72.01
2022-10-15T15:48:41.924Z,71.25
2022-10-15T15:51:22.041Z,72.53
2022-10-15T15:53:49.278Z,71.90
2022-10-15T15:56:16.395Z,73.67
2022-10-15T15:58:43.786Z,73.95
2022-10-15T16:01:10.758Z,72.80
2022-10-15T16:03:38.262Z,72.55
2022-10-15T16:06:07.228Z,73.25
2022-10-15T16:08:35.548Z,73.42
2022-10-15T16:11:05.191Z,72.90
2022-10-15T16:13:32.726Z,73.63
2022-10-15T16:15:59.799Z,73.17
2022-10-15T16:18:26.696Z,73.36
2022-10-15T16:20:53.857Z,73.15
2022-10-15T16:23:20.764Z,74.10
2022-10-15T16:25:47.653Z,76.09
2022-10-15T16:28:14.852Z,74.20
2022-10-15T16:30:41.895Z,74.87
2022-10-15T16:35:40.731Z,75.32
2022-10-15T16:38:08.919Z,74.63
2022-10-15T16:40:35.946Z,74.54
2022-10-15T16:43:03.110Z,74.70
2022-10-15T16:45:30.140Z,74.43
2022-10-15T16:47:57.242Z,75.76
2022-10-15T16:50:24.193Z,75.73
2022-10-15T16:52:51.137Z,75.64
2022-10-15T16:55:18.185Z,75.59
2022-10-15T16:57:45.220Z,75.44
2022-10-15T17:00:12.570Z,75.63
2022-10-15T17:02:39.656Z,76.20
2022-10-15T17:05:07.230Z,75.28
2022-10-15T17:07:34.258Z,75.49
2022-10-15T17:10:01.782Z,75.73
2022-10-15T17:12:30.322Z,75.70
2022-10-15T17:14:57.349Z,76.02
2022-10-15T17:17:24.357Z,76.62
2022-10-15T17:19:51.365Z,75.95
2022-10-15T17:22:18.327Z,75.97
2022-10-15T17:24:45.297Z,76.30
2022-10-15T17:27:12.723Z,76.88
2022-10-15T17:29:42.546Z,76.91
2022-10-15T17:32:09.462Z,76.58
2022-10-15T17:34:37.171Z,77.23
2022-10-15T17:37:04.339Z,77.13
2022-10-15T17:39:31.325Z,77.33
2022-10-15T17:41:58.397Z,77.60
2022-10-15T17:44:25.338Z,78.15
2022-10-15T17:46:52.946Z,78.04
2022-10-15T17:49:26.306Z,79.69
2022-10-15T17:51:53.310Z,78.79
2022-10-15T17:54:20.294Z,78.77
2022-10-15T17:56:48.695Z,79.03
2022-10-15T17:59:15.924Z,78.52
2022-10-15T18:02:00.563Z,78.39
2022-10-15T18:04:30.453Z,78.75
2022-10-15T18:06:57.546Z,79.08
2022-10-15T18:09:25.895Z,77.93
2022-10-15T18:11:57.562Z,77.76
2022-10-15T18:14:31.618Z,77.98
2022-10-15T18:16:58.978Z,77.88
2022-10-15T18:19:26.879Z,78.72
2022-10-15T18:21:55.573Z,78.20
2022-10-15T18:24:23.752Z,78.14
2022-10-15T18:26:51.610Z,77.63
2022-10-15T18:29:19.491Z,78.07
2022-10-15T18:31:47.388Z,78.03
2022-10-15T18:34:14.427Z,78.35
2022-10-15T18:36:43.636Z,78.33
2022-10-15T18:39:11.343Z,78.16
2022-10-15T18:41:40.196Z,78.19
2022-10-15T18:44:13.154Z,78.42
2022-10-15T18:46:42.289Z,78.36
2022-10-15T18:49:09.569Z,78.56
2022-10-15T18:51:37.106Z,78.72
2022-10-15T18:54:04.674Z,78.50
2022-10-15T18:56:32.097Z,78.62
2022-10-15T18:58:59.077Z,78.60
2022-10-15T19:01:29.565Z,78.28
2022-10-15T19:03:58.854Z,78.26
2022-10-15T19:06:29.424Z,78.53
2022-10-15T19:08:58.028Z,77.94
2022-10-15T19:11:30.350Z,77.73
2022-10-15T19:14:00.567Z,78.03
2022-10-15T19:16:28.514Z,77.60
2022-10-15T19:19:03.623Z,78.00
2022-10-15T19:21:32.403Z,77.97
2022-10-15T19:24:00.149Z,77.87
2022-10-15T19:26:28.560Z,77.48
2022-10-15T19:28:57.392Z,77.95
2022-10-15T19:31:29.903Z,77.76
2022-10-15T19:34:00.545Z,77.53
2022-10-15T19:36:35.155Z,77.74
2022-10-15T19:39:08.112Z,77.70
2022-10-15T19:41:39.800Z,77.27
2022-10-15T19:44:08.283Z,77.22
2022-10-15T19:46:38.818Z,77.82
2022-10-15T19:49:07.490Z,77.55
2022-10-15T19:51:35.110Z,77.41
2022-10-15T19:54:02.053Z,77.74
2022-10-15T19:56:33.114Z,77.69
2022-10-15T19:59:04.632Z,77.44
2022-10-15T20:01:31.876Z,77.56
2022-10-15T20:04:03.301Z,77.66
2022-10-15T20:06:33.886Z,77.67
2022-10-15T20:09:02.262Z,77.53
2022-10-15T20:11:29.364Z,77.36
2022-10-15T20:13:56.534Z,77.40
2022-10-15T20:16:24.792Z,77.39
2022-10-15T20:18:52.681Z,77.14
2022-10-15T20:21:19.768Z,77.28
2022-10-15T20:23:47.917Z,77.40
2022-10-15T20:26:16.210Z,77.06
2022-10-15T20:28:45.361Z,77.24
2022-10-15T20:31:20.109Z,77.33
2022-10-15T20:33:49.022Z,77.31
2022-10-15T20:36:22.617Z,77.17
2022-10-15T20:38:51.348Z,77.12
2022-10-15T20:41:18.937Z,77.03
2022-10-15T20:43:47.251Z,77.17
2022-10-15T20:46:21.596Z,77.30
2022-10-15T20:48:48.960Z,77.22
2022-10-15T20:51:18.668Z,77.18
2022-10-15T20:53:46.368Z,76.79
2022-10-15T20:56:13.830Z,76.81
2022-10-15T20:58:40.891Z,76.77
2022-10-15T21:01:08.097Z,76.52
2022-10-15T21:03:35.243Z,76.33
2022-10-15T21:06:02.256Z,76.47
2022-10-15T21:08:29.286Z,76.47
2022-10-15T21:11:06.952Z,76.12
2022-10-15T21:13:34.555Z,76.21
2022-10-15T21:16:02.982Z,76.10
2022-10-15T21:18:29.976Z,76.31
2022-10-15T21:21:08.411Z,76.13
2022-10-15T21:23:36.872Z,76.17
2022-10-15T21:26:08.540Z,76.03
2022-10-15T21:28:36.349Z,75.89
2022-10-15T21:31:10.022Z,75.66
2022-10-15T21:33:37.687Z,75.60
2022-10-15T21:36:15.934Z,75.31
2022-10-15T21:38:43.016Z,75.34
2022-10-15T21:41:10.118Z,75.17
2022-10-15T21:43:37.235Z,75.46
2022-10-15T21:46:14.410Z,75.01
2022-10-15T21:48:42.873Z,74.99
2022-10-15T21:51:18.919Z,75.14
2022-10-15T21:53:46.797Z,74.88
2022-10-15T21:56:14.162Z,74.95
2022-10-15T21:58:41.614Z,75.31
2022-10-15T22:01:13.578Z,75.04
2022-10-15T22:03:43.379Z,75.19
2022-10-15T22:06:11.224Z,74.93
2022-10-15T22:08:38.545Z,75.16
2022-10-15T22:11:13.381Z,75.30
2022-10-15T22:13:43.912Z,75.10
2022-10-15T22:16:11.618Z,75.08
2022-10-15T22:18:39.397Z,75.25
2022-10-15T22:21:16.551Z,75.46
2022-10-15T22:23:52.550Z,75.60
2022-10-15T22:26:21.673Z,75.24
2022-10-15T22:28:48.664Z,75.79
2022-10-15T22:31:17.285Z,75.68
2022-10-15T22:33:45.878Z,75.67
2022-10-15T22:36:19.075Z,76.00
2022-10-15T22:38:48.566Z,75.78
2022-10-15T22:41:16.481Z,75.92
2022-10-15T22:43:43.513Z,75.81
2022-10-15T22:46:11.003Z,76.18
2022-10-15T22:48:40.515Z,76.02
2022-10-15T22:51:09.762Z,76.35
2022-10-15T22:53:36.842Z,76.46
2022-10-15T22:56:11.098Z,76.22
2022-10-15T22:58:38.153Z,76.49
2022-10-15T23:01:13.473Z,76.76
2022-10-15T23:03:43.347Z,76.33
2022-10-15T23:06:10.846Z,76.99
2022-10-15T23:08:38.579Z,76.67
2022-10-15T23:11:09.378Z,76.76
2022-10-15T23:13:38.339Z,76.91
2022-10-15T23:16:20.129Z,76.94
2022-10-15T23:18:51.530Z,76.83
2022-10-15T23:21:25.564Z,76.88
2022-10-15T23:23:52.515Z,76.88
2022-10-15T23:26:19.509Z,76.89
2022-10-15T23:28:51.663Z,77.29
2022-10-15T23:31:20.821Z,77.02
2022-10-15T23:33:47.816Z,77.35
2022-10-15T23:36:15.264Z,77.42
2022-10-15T23:38:42.271Z,77.65
2022-10-15T23:41:10.636Z,77.64
2022-10-15T23:43:38.256Z,77.87
2022-10-15T23:46:05.337Z,77.96
2022-10-15T23:48:32.399Z,77.74
2022-10-15T23:51:02.587Z,77.91
2022-10-15T23:53:33.088Z,78.10
2022-10-15T23:56:02.965Z,78.16
2022-10-15T23:58:32.388Z,78.13
